Rechercher aéroport 
image banner adimage banner ad
image banner ad

DNMN - Minna/Minna

Situé à Minna, Nigeria

ICAO - DNMN, IATA - MXJ

Données fournies par Airmate  

Information générale

Coordonnées: N9°39'8" E6°27'44"
Élévation : 898 feet MSL.
 
Voir autres Aéroports à Niger

Données opérationnelles

Accessible au public
Heure actuelle UTC:
Heure actuelle locale:
Météo
METAR: DNMN 290900Z 14004KT CAVOK 29/19 Q1013
TAF: TAF DNMN 290500Z 2906/3012 33005KT CAVOK BECMG 2910/2912 06012KT
Voir NOTAMs / SUP AIP / TFR affectant cet aéroport [VIEW]
Fréquences de communication: [VIEW]

Pistes:

Identifiant RWYQFULongueur (ft)Largeur (ft)SurfaceLDA (ft)
0545°11153145ASP
23225°11155148

Coordonnées de l'aéroport

Adresse: Minna Nigeria

Vue satellite de DNMN